Terminal Aerodrome Forecast
Issued by NWS

Home | Current Version | Previous Version | Text Only | Print | Product List | Glossary Off
Versions: 1 2 3 4 5 6 7 8 9 10 11 12 13 14 15 16 17 18 19 20 21 22 23 24 25 26

000
FTUS43 KLOT 131733
TAFMDW
TAF
KMDW 131733Z 1318/1418 02012KT P6SM SCT022 OVC100
      TEMPO 1318/1320 BKN022
     FM132200 05010KT P6SM FEW030 OVC150
     FM140300 07005KT P6SM SCT060 OVC150
     FM141300 10003KT P6SM BKN050 OVC100=

USA.gov is the U.S. government's official web portal to all federal, state and local government web resources and services.